VIP Ground Handling & Aviation Services

 

 
Airport

ALEXANDROUPOLIS (AXD)

Ground Handling Services – AXD/LGAL

VIP Ground Handling

State Ground Handling

Military Ground Handling

Slot & PPR Coordination

Fuel Arrangements

Crew Accommodation Arrangements

Crew Transportation

Customs & Immigration Assistance

Executive Terminal Services

Crew Lounge

Flight Planning, Weather Briefing and NOTAMs

Catering Arrangements

Security Services

Aircraft Maintenance

Airport Customs & Immigration

Concierge Services

VIP Meet & Greet

Helicopter Transfers

Chauffeur Services

Aircraft Charter

Yacht Charter

Hire & Rental

Entertainment & Hospitality

Health & Beauty

Delivery Services

Conference & Meeting rooms

Alexandroupolis Airport, Alexandroupoli, 681 00

+30 210 35 33 331 (24/7)

+30 694 6200 300 (24/7)

greece@alphajetservices.com

Alexandroupolis Airport
Airport Type
•Civil
Operating Hours / Contact us
•Check NOTAMS
Fuel Available
•JET A1
Fire Category
•6
Approaches
•VOR / DME NDB
Available data for LGAL from the past 2 hours
ALEXANDROUPOLIS
Metar
LGAL 260950Z 05013KT CAVOK 33/13 Q1016

09:50 UTC

Wind: 50° 13kt

Visibility:

Sky:

Temp: 33 deg C / 91.4 deg F

Dewpoint: 13 deg C / 55.4 deg F

Pressure: 1016 hPa

TAF
TAF LGAL 260800Z 2609/2618 04012KT 9999 FEW025 TEMPO 2609/2618 04012G22KT